sensor_id;sensor_type;location;lat;lon;timestamp;P1;durP1;ratioP1;P2;durP2;ratioP2
74644;SDS011;63163;55.630;37.594;2023-03-01T00:00:48;1.0;;;0.5;;
74644;SDS011;63163;55.630;37.594;2023-03-01T00:01:48;0.8;;;0.3;;
74644;SDS011;63163;55.630;37.594;2023-03-01T00:02:49;0.6;;;0.5;;
74644;SDS011;63163;55.630;37.594;2023-03-01T00:03:50;2.0;;;0.5;;
74644;SDS011;63163;55.630;37.594;2023-03-01T00:04:50;2.4;;;0.5;;
74644;SDS011;63163;55.630;37.594;2023-03-01T00:05:52;1.0;;;0.3;;
74644;SDS011;63163;55.630;37.594;2023-03-01T00:06:52;0.7;;;0.3;;
74644;SDS011;63163;55.630;37.594;2023-03-01T00:07:53;1.0;;;0.4;;
74644;SDS011;63163;55.630;37.594;2023-03-01T00:08:54;1.0;;;0.3;;
74644;SDS011;63163;55.630;37.594;2023-03-01T00:09:54;2.3;;;0.5;;
74644;SDS011;63163;55.630;37.594;2023-03-01T00:11:03;2.1;;;0.8;;
74644;SDS011;63163;55.630;37.594;2023-03-01T00:12:04;3.4;;;0.5;;
74644;SDS011;63163;55.630;37.594;2023-03-01T00:13:05;2.2;;;0.4;;
74644;SDS011;63163;55.630;37.594;2023-03-01T00:14:06;1.7;;;0.3;;
74644;SDS011;63163;55.630;37.594;2023-03-01T00:15:07;1.1;;;0.4;;
74644;SDS011;63163;55.630;37.594;2023-03-01T00:16:08;1.1;;;0.6;;
74644;SDS011;63163;55.630;37.594;2023-03-01T00:17:09;2.4;;;0.5;;
74644;SDS011;63163;55.630;37.594;2023-03-01T00:18:10;1.3;;;0.4;;
74644;SDS011;63163;55.630;37.594;2023-03-01T00:19:11;1.3;;;0.4;;
74644;SDS011;63163;55.630;37.594;2023-03-01T00:20:12;2.4;;;0.5;;
74644;SDS011;63163;55.630;37.594;2023-03-01T00:21:13;1.3;;;0.5;;
74644;SDS011;63163;55.630;37.594;2023-03-01T00:22:13;1.3;;;0.5;;
74644;SDS011;63163;55.630;37.594;2023-03-01T00:23:14;1.2;;;0.5;;
74644;SDS011;63163;55.630;37.594;2023-03-01T00:24:14;0.9;;;0.6;;
74644;SDS011;63163;55.630;37.594;2023-03-01T00:25:15;1.1;;;0.4;;
74644;SDS011;63163;55.630;37.594;2023-03-01T00:26:17;0.4;;;0.4;;
74644;SDS011;63163;55.630;37.594;2023-03-01T00:27:18;1.0;;;0.4;;
74644;SDS011;63163;55.630;37.594;2023-03-01T00:28:18;1.0;;;0.4;;
74644;SDS011;63163;55.630;37.594;2023-03-01T00:29:19;1.3;;;0.5;;
74644;SDS011;63163;55.630;37.594;2023-03-01T00:30:19;1.3;;;0.5;;
74644;SDS011;63163;55.630;37.594;2023-03-01T00:31:21;1.2;;;0.5;;
74644;SDS011;63163;55.630;37.594;2023-03-01T00:32:22;3.3;;;0.6;;
74644;SDS011;63163;55.630;37.594;2023-03-01T00:33:22;0.9;;;0.4;;
74644;SDS011;63163;55.630;37.594;2023-03-01T00:34:23;1.5;;;0.5;;
74644;SDS011;63163;55.630;37.594;2023-03-01T00:35:24;2.7;;;0.5;;
74644;SDS011;63163;55.630;37.594;2023-03-01T00:36:26;2.1;;;0.3;;
74644;SDS011;63163;55.630;37.594;2023-03-01T00:37:26;1.1;;;0.4;;
74644;SDS011;63163;55.630;37.594;2023-03-01T00:38:27;0.5;;;0.3;;
74644;SDS011;63163;55.630;37.594;2023-03-01T00:39:28;1.2;;;0.4;;
74644;SDS011;63163;55.630;37.594;2023-03-01T00:40:29;1.1;;;0.4;;
74644;SDS011;63163;55.630;37.594;2023-03-01T00:41:30;1.8;;;0.4;;
74644;SDS011;63163;55.630;37.594;2023-03-01T00:42:31;0.5;;;0.2;;
74644;SDS011;63163;55.630;37.594;2023-03-01T00:43:32;2.6;;;0.5;;
74644;SDS011;63163;55.630;37.594;2023-03-01T00:44:36;1.4;;;0.4;;
74644;SDS011;63163;55.630;37.594;2023-03-01T00:45:37;1.0;;;0.4;;
74644;SDS011;63163;55.630;37.594;2023-03-01T00:46:37;0.5;;;0.2;;
74644;SDS011;63163;55.630;37.594;2023-03-01T00:47:38;1.7;;;0.5;;
74644;SDS011;63163;55.630;37.594;2023-03-01T00:48:39;1.5;;;0.4;;
74644;SDS011;63163;55.630;37.594;2023-03-01T00:49:39;1.4;;;0.4;;
74644;SDS011;63163;55.630;37.594;2023-03-01T00:50:40;1.1;;;0.5;;
74644;SDS011;63163;55.630;37.594;2023-03-01T00:51:40;1.3;;;0.5;;
74644;SDS011;63163;55.630;37.594;2023-03-01T00:52:41;0.7;;;0.5;;
74644;SDS011;63163;55.630;37.594;2023-03-01T00:53:42;1.3;;;0.4;;
74644;SDS011;63163;55.630;37.594;2023-03-01T00:54:43;1.3;;;0.5;;
74644;SDS011;63163;55.630;37.594;2023-03-01T00:55:44;0.6;;;0.4;;
74644;SDS011;63163;55.630;37.594;2023-03-01T00:56:44;2.2;;;0.4;;
74644;SDS011;63163;55.630;37.594;2023-03-01T00:57:45;0.8;;;0.5;;
74644;SDS011;63163;55.630;37.594;2023-03-01T00:58:45;2.0;;;0.4;;
74644;SDS011;63163;55.630;37.594;2023-03-01T00:59:46;0.4;;;0.3;;
74644;SDS011;63163;55.630;37.594;2023-03-01T01:00:47;1.4;;;0.5;;
74644;SDS011;63163;55.630;37.594;2023-03-01T01:01:47;2.0;;;0.4;;
74644;SDS011;63163;55.630;37.594;2023-03-01T01:02:48;0.6;;;0.3;;
74644;SDS011;63163;55.630;37.594;2023-03-01T01:03:49;0.6;;;0.3;;
74644;SDS011;63163;55.630;37.594;2023-03-01T01:04:50;0.7;;;0.4;;
74644;SDS011;63163;55.630;37.594;2023-03-01T01:05:51;2.0;;;0.5;;
74644;SDS011;63163;55.630;37.594;2023-03-01T01:06:52;1.2;;;0.4;;
74644;SDS011;63163;55.630;37.594;2023-03-01T01:07:52;2.2;;;0.5;;
74644;SDS011;63163;55.630;37.594;2023-03-01T01:08:54;1.9;;;0.4;;
74644;SDS011;63163;55.630;37.594;2023-03-01T01:09:54;2.3;;;0.5;;
74644;SDS011;63163;55.630;37.594;2023-03-01T01:10:55;1.6;;;0.4;;
74644;SDS011;63163;55.630;37.594;2023-03-01T01:11:56;2.6;;;0.5;;
74644;SDS011;63163;55.630;37.594;2023-03-01T01:12:57;1.0;;;0.4;;
74644;SDS011;63163;55.630;37.594;2023-03-01T01:13:58;0.6;;;0.3;;
74644;SDS011;63163;55.630;37.594;2023-03-01T01:14:59;1.1;;;0.5;;
74644;SDS011;63163;55.630;37.594;2023-03-01T01:16:00;0.9;;;0.4;;
74644;SDS011;63163;55.630;37.594;2023-03-01T01:17:01;1.9;;;0.5;;
74644;SDS011;63163;55.630;37.594;2023-03-01T01:18:01;1.6;;;0.4;;
74644;SDS011;63163;55.630;37.594;2023-03-01T01:19:02;1.8;;;0.4;;
74644;SDS011;63163;55.630;37.594;2023-03-01T01:20:03;0.8;;;0.3;;
74644;SDS011;63163;55.630;37.594;2023-03-01T01:21:05;1.7;;;0.4;;
74644;SDS011;63163;55.630;37.594;2023-03-01T01:22:05;1.6;;;0.5;;
74644;SDS011;63163;55.630;37.594;2023-03-01T01:23:06;3.0;;;0.5;;
74644;SDS011;63163;55.630;37.594;2023-03-01T01:24:08;2.7;;;0.4;;
74644;SDS011;63163;55.630;37.594;2023-03-01T01:25:08;0.7;;;0.2;;
74644;SDS011;63163;55.630;37.594;2023-03-01T01:26:10;1.7;;;0.3;;
74644;SDS011;63163;55.630;37.594;2023-03-01T01:27:11;2.6;;;0.4;;
74644;SDS011;63163;55.630;37.594;2023-03-01T01:28:12;1.4;;;0.4;;
74644;SDS011;63163;55.630;37.594;2023-03-01T01:29:12;1.2;;;0.4;;
74644;SDS011;63163;55.630;37.594;2023-03-01T01:30:13;1.2;;;0.4;;
74644;SDS011;63163;55.630;37.594;2023-03-01T01:31:14;1.4;;;0.3;;
74644;SDS011;63163;55.630;37.594;2023-03-01T01:32:15;1.6;;;0.5;;
74644;SDS011;63163;55.630;37.594;2023-03-01T01:33:16;0.9;;;0.4;;
74644;SDS011;63163;55.630;37.594;2023-03-01T01:34:18;0.5;;;0.5;;
74644;SDS011;63163;55.630;37.594;2023-03-01T01:35:19;1.6;;;0.4;;
74644;SDS011;63163;55.630;37.594;2023-03-01T01:36:19;1.4;;;0.2;;
74644;SDS011;63163;55.630;37.594;2023-03-01T01:37:20;2.0;;;0.6;;
74644;SDS011;63163;55.630;37.594;2023-03-01T01:38:21;0.7;;;0.3;;
74644;SDS011;63163;55.630;37.594;2023-03-01T01:39:22;1.7;;;0.4;;
74644;SDS011;63163;55.630;37.594;2023-03-01T01:40:22;0.6;;;0.3;;
74644;SDS011;63163;55.630;37.594;2023-03-01T01:41:24;1.7;;;0.4;;
74644;SDS011;63163;55.630;37.594;2023-03-01T01:42:25;2.1;;;0.7;;
74644;SDS011;63163;55.630;37.594;2023-03-01T01:43:27;1.1;;;0.5;;
74644;SDS011;63163;55.630;37.594;2023-03-01T01:44:28;1.9;;;0.4;;
74644;SDS011;63163;55.630;37.594;2023-03-01T01:45:31;0.5;;;0.3;;
74644;SDS011;63163;55.630;37.594;2023-03-01T01:46:32;0.9;;;0.3;;
74644;SDS011;63163;55.630;37.594;2023-03-01T01:47:34;0.6;;;0.3;;
74644;SDS011;63163;55.630;37.594;2023-03-01T01:48:37;1.5;;;0.4;;
74644;SDS011;63163;55.630;37.594;2023-03-01T01:49:41;0.9;;;0.4;;
74644;SDS011;63163;55.630;37.594;2023-03-01T01:50:42;1.2;;;0.3;;
74644;SDS011;63163;55.630;37.594;2023-03-01T01:51:45;0.2;;;0.2;;
74644;SDS011;63163;55.630;37.594;2023-03-01T01:52:48;1.1;;;0.3;;
74644;SDS011;63163;55.630;37.594;2023-03-01T01:53:51;1.6;;;0.6;;
74644;SDS011;63163;55.630;37.594;2023-03-01T01:54:54;4.2;;;0.3;;
74644;SDS011;63163;55.630;37.594;2023-03-01T01:55:56;1.1;;;0.3;;
74644;SDS011;63163;55.630;37.594;2023-03-01T01:56:59;2.8;;;0.3;;
74644;SDS011;63163;55.630;37.594;2023-03-01T01:58:02;2.7;;;0.7;;
74644;SDS011;63163;55.630;37.594;2023-03-01T01:59:02;2.4;;;0.4;;
74644;SDS011;63163;55.630;37.594;2023-03-01T02:00:04;1.0;;;0.4;;
74644;SDS011;63163;55.630;37.594;2023-03-01T02:01:06;1.7;;;0.5;;
74644;SDS011;63163;55.630;37.594;2023-03-01T02:02:06;0.7;;;0.4;;
74644;SDS011;63163;55.630;37.594;2023-03-01T02:03:08;0.6;;;0.3;;
74644;SDS011;63163;55.630;37.594;2023-03-01T02:04:10;0.5;;;0.2;;
74644;SDS011;63163;55.630;37.594;2023-03-01T02:05:12;2.4;;;0.5;;
74644;SDS011;63163;55.630;37.594;2023-03-01T02:06:17;2.0;;;0.5;;
74644;SDS011;63163;55.630;37.594;2023-03-01T02:07:20;0.5;;;0.3;;
74644;SDS011;63163;55.630;37.594;2023-03-01T02:08:21;0.7;;;0.4;;
74644;SDS011;63163;55.630;37.594;2023-03-01T02:09:23;2.2;;;0.3;;
74644;SDS011;63163;55.630;37.594;2023-03-01T02:10:24;2.0;;;0.4;;
74644;SDS011;63163;55.630;37.594;2023-03-01T02:11:25;2.0;;;0.5;;
74644;SDS011;63163;55.630;37.594;2023-03-01T02:12:27;1.9;;;0.7;;
74644;SDS011;63163;55.630;37.594;2023-03-01T02:13:29;1.1;;;0.5;;
74644;SDS011;63163;55.630;37.594;2023-03-01T02:14:30;1.3;;;0.5;;
74644;SDS011;63163;55.630;37.594;2023-03-01T02:15:31;0.6;;;0.3;;
74644;SDS011;63163;55.630;37.594;2023-03-01T02:16:32;1.8;;;0.5;;
74644;SDS011;63163;55.630;37.594;2023-03-01T02:17:33;1.9;;;0.4;;
74644;SDS011;63163;55.630;37.594;2023-03-01T02:18:34;1.6;;;0.5;;
74644;SDS011;63163;55.630;37.594;2023-03-01T02:19:38;1.4;;;1.0;;
74644;SDS011;63163;55.630;37.594;2023-03-01T02:20:44;1.7;;;0.5;;
74644;SDS011;63163;55.630;37.594;2023-03-01T02:21:49;2.0;;;0.4;;
74644;SDS011;63163;55.630;37.594;2023-03-01T02:22:53;1.8;;;0.4;;
74644;SDS011;63163;55.630;37.594;2023-03-01T02:23:54;0.8;;;0.3;;
74644;SDS011;63163;55.630;37.594;2023-03-01T02:24:59;1.8;;;0.5;;
74644;SDS011;63163;55.630;37.594;2023-03-01T02:26:04;3.4;;;0.4;;
74644;SDS011;63163;55.630;37.594;2023-03-01T02:27:07;0.8;;;0.5;;
74644;SDS011;63163;55.630;37.594;2023-03-01T02:29:11;1.0;;;0.5;;
74644;SDS011;63163;55.630;37.594;2023-03-01T02:30:12;1.0;;;0.5;;
74644;SDS011;63163;55.630;37.594;2023-03-01T02:31:14;0.7;;;0.4;;
74644;SDS011;63163;55.630;37.594;2023-03-01T02:32:47;1.6;;;0.4;;
74644;SDS011;63163;55.630;37.594;2023-03-01T02:33:48;2.3;;;0.6;;
74644;SDS011;63163;55.630;37.594;2023-03-01T02:34:49;0.2;;;0.2;;
74644;SDS011;63163;55.630;37.594;2023-03-01T02:35:49;1.2;;;0.5;;
74644;SDS011;63163;55.630;37.594;2023-03-01T02:36:51;3.3;;;0.8;;
74644;SDS011;63163;55.630;37.594;2023-03-01T02:37:53;1.6;;;0.5;;
74644;SDS011;63163;55.630;37.594;2023-03-01T02:38:57;0.8;;;0.4;;
74644;SDS011;63163;55.630;37.594;2023-03-01T02:39:59;0.6;;;0.5;;
74644;SDS011;63163;55.630;37.594;2023-03-01T02:41:03;3.0;;;0.6;;
74644;SDS011;63163;55.630;37.594;2023-03-01T02:42:05;2.3;;;0.5;;
74644;SDS011;63163;55.630;37.594;2023-03-01T02:43:07;2.3;;;0.6;;
74644;SDS011;63163;55.630;37.594;2023-03-01T02:44:09;1.6;;;0.5;;
74644;SDS011;63163;55.630;37.594;2023-03-01T02:45:10;1.4;;;0.3;;
74644;SDS011;63163;55.630;37.594;2023-03-01T02:46:14;1.1;;;0.5;;
74644;SDS011;63163;55.630;37.594;2023-03-01T02:47:15;0.6;;;0.3;;
74644;SDS011;63163;55.630;37.594;2023-03-01T02:48:15;1.2;;;0.4;;
74644;SDS011;63163;55.630;37.594;2023-03-01T02:49:18;1.3;;;0.5;;
74644;SDS011;63163;55.630;37.594;2023-03-01T02:50:22;0.7;;;0.7;;
74644;SDS011;63163;55.630;37.594;2023-03-01T02:51:27;1.2;;;0.5;;
74644;SDS011;63163;55.630;37.594;2023-03-01T02:52:37;1.7;;;0.6;;
74644;SDS011;63163;55.630;37.594;2023-03-01T02:53:41;1.3;;;0.6;;
74644;SDS011;63163;55.630;37.594;2023-03-01T02:54:46;1.1;;;0.5;;
74644;SDS011;63163;55.630;37.594;2023-03-01T02:55:48;1.2;;;0.5;;
74644;SDS011;63163;55.630;37.594;2023-03-01T02:56:49;1.3;;;0.3;;
74644;SDS011;63163;55.630;37.594;2023-03-01T02:57:49;2.2;;;0.5;;
74644;SDS011;63163;55.630;37.594;2023-03-01T02:58:51;1.5;;;0.5;;
74644;SDS011;63163;55.630;37.594;2023-03-01T02:59:52;0.6;;;0.5;;
74644;SDS011;63163;55.630;37.594;2023-03-01T03:00:53;1.4;;;0.6;;
74644;SDS011;63163;55.630;37.594;2023-03-01T03:01:54;2.0;;;0.6;;
74644;SDS011;63163;55.630;37.594;2023-03-01T03:02:55;4.4;;;0.7;;
74644;SDS011;63163;55.630;37.594;2023-03-01T03:03:57;1.0;;;0.5;;
74644;SDS011;63163;55.630;37.594;2023-03-01T03:05:00;2.0;;;0.4;;
74644;SDS011;63163;55.630;37.594;2023-03-01T03:06:00;0.6;;;0.4;;
74644;SDS011;63163;55.630;37.594;2023-03-01T03:07:01;1.3;;;0.6;;
74644;SDS011;63163;55.630;37.594;2023-03-01T03:08:02;0.7;;;0.3;;
74644;SDS011;63163;55.630;37.594;2023-03-01T03:09:03;0.6;;;0.4;;
74644;SDS011;63163;55.630;37.594;2023-03-01T03:10:06;3.1;;;0.5;;
74644;SDS011;63163;55.630;37.594;2023-03-01T03:11:07;0.6;;;0.5;;
74644;SDS011;63163;55.630;37.594;2023-03-01T03:12:07;0.9;;;0.4;;
74644;SDS011;63163;55.630;37.594;2023-03-01T03:13:09;2.2;;;0.6;;
74644;SDS011;63163;55.630;37.594;2023-03-01T03:14:10;2.3;;;0.5;;
74644;SDS011;63163;55.630;37.594;2023-03-01T03:15:12;1.1;;;0.6;;
74644;SDS011;63163;55.630;37.594;2023-03-01T03:16:13;1.3;;;0.6;;
74644;SDS011;63163;55.630;37.594;2023-03-01T03:17:14;3.6;;;0.8;;
74644;SDS011;63163;55.630;37.594;2023-03-01T03:18:15;1.9;;;0.6;;
74644;SDS011;63163;55.630;37.594;2023-03-01T03:19:16;1.6;;;0.5;;
74644;SDS011;63163;55.630;37.594;2023-03-01T03:20:18;0.5;;;0.3;;
74644;SDS011;63163;55.630;37.594;2023-03-01T03:21:19;1.8;;;0.5;;
74644;SDS011;63163;55.630;37.594;2023-03-01T03:22:19;1.6;;;0.4;;
74644;SDS011;63163;55.630;37.594;2023-03-01T03:23:21;0.5;;;0.3;;
74644;SDS011;63163;55.630;37.594;2023-03-01T03:24:21;0.9;;;0.4;;
74644;SDS011;63163;55.630;37.594;2023-03-01T03:25:22;2.4;;;0.8;;
74644;SDS011;63163;55.630;37.594;2023-03-01T03:26:23;2.1;;;0.5;;
74644;SDS011;63163;55.630;37.594;2023-03-01T03:27:24;3.7;;;0.8;;
74644;SDS011;63163;55.630;37.594;2023-03-01T03:28:24;2.3;;;0.5;;
74644;SDS011;63163;55.630;37.594;2023-03-01T03:29:25;0.8;;;0.4;;
74644;SDS011;63163;55.630;37.594;2023-03-01T03:30:26;0.8;;;0.4;;
74644;SDS011;63163;55.630;37.594;2023-03-01T03:31:28;1.7;;;0.5;;
74644;SDS011;63163;55.630;37.594;2023-03-01T03:32:29;1.4;;;0.4;;
74644;SDS011;63163;55.630;37.594;2023-03-01T03:33:30;1.6;;;0.5;;
74644;SDS011;63163;55.630;37.594;2023-03-01T03:34:31;1.6;;;0.6;;
74644;SDS011;63163;55.630;37.594;2023-03-01T03:35:32;1.0;;;0.4;;
74644;SDS011;63163;55.630;37.594;2023-03-01T03:36:33;0.6;;;0.4;;
74644;SDS011;63163;55.630;37.594;2023-03-01T03:37:34;1.5;;;0.5;;
74644;SDS011;63163;55.630;37.594;2023-03-01T03:39:37;1.9;;;0.6;;
74644;SDS011;63163;55.630;37.594;2023-03-01T03:40:38;1.1;;;0.5;;
74644;SDS011;63163;55.630;37.594;2023-03-01T03:41:39;0.7;;;0.4;;
74644;SDS011;63163;55.630;37.594;2023-03-01T03:42:40;2.0;;;0.6;;
74644;SDS011;63163;55.630;37.594;2023-03-01T03:43:41;1.4;;;0.6;;
74644;SDS011;63163;55.630;37.594;2023-03-01T03:44:43;2.5;;;0.5;;
74644;SDS011;63163;55.630;37.594;2023-03-01T03:45:44;2.0;;;0.7;;
74644;SDS011;63163;55.630;37.594;2023-03-01T03:46:45;1.8;;;0.5;;
74644;SDS011;63163;55.630;37.594;2023-03-01T03:47:45;0.6;;;0.3;;
74644;SDS011;63163;55.630;37.594;2023-03-01T03:48:46;0.8;;;0.5;;
74644;SDS011;63163;55.630;37.594;2023-03-01T03:49:46;1.3;;;0.4;;
74644;SDS011;63163;55.630;37.594;2023-03-01T03:50:47;1.4;;;0.5;;
74644;SDS011;63163;55.630;37.594;2023-03-01T03:51:49;1.1;;;0.4;;
74644;SDS011;63163;55.630;37.594;2023-03-01T03:52:50;0.7;;;0.4;;
74644;SDS011;63163;55.630;37.594;2023-03-01T03:53:50;2.2;;;0.6;;
74644;SDS011;63163;55.630;37.594;2023-03-01T03:54:51;0.6;;;0.4;;
74644;SDS011;63163;55.630;37.594;2023-03-01T03:55:52;2.0;;;0.5;;
74644;SDS011;63163;55.630;37.594;2023-03-01T03:56:52;2.0;;;0.4;;
74644;SDS011;63163;55.630;37.594;2023-03-01T03:57:53;1.7;;;0.5;;
74644;SDS011;63163;55.630;37.594;2023-03-01T03:58:54;1.6;;;0.3;;
74644;SDS011;63163;55.630;37.594;2023-03-01T03:59:54;0.3;;;0.2;;
74644;SDS011;63163;55.630;37.594;2023-03-01T04:00:56;2.3;;;0.7;;
74644;SDS011;63163;55.630;37.594;2023-03-01T04:01:56;0.8;;;0.7;;
74644;SDS011;63163;55.630;37.594;2023-03-01T04:02:57;1.1;;;0.3;;
74644;SDS011;63163;55.630;37.594;2023-03-01T04:03:57;1.2;;;0.5;;
74644;SDS011;63163;55.630;37.594;2023-03-01T04:05:04;2.0;;;0.4;;
74644;SDS011;63163;55.630;37.594;2023-03-01T04:06:05;1.9;;;0.5;;
74644;SDS011;63163;55.630;37.594;2023-03-01T04:07:06;1.5;;;0.5;;
74644;SDS011;63163;55.630;37.594;2023-03-01T04:08:07;2.8;;;0.8;;
74644;SDS011;63163;55.630;37.594;2023-03-01T04:09:07;0.7;;;0.4;;
74644;SDS011;63163;55.630;37.594;2023-03-01T04:10:09;1.4;;;0.5;;
74644;SDS011;63163;55.630;37.594;2023-03-01T04:11:10;0.6;;;0.4;;
74644;SDS011;63163;55.630;37.594;2023-03-01T04:12:26;1.3;;;0.5;;
74644;SDS011;63163;55.630;37.594;2023-03-01T04:13:28;2.4;;;0.9;;
74644;SDS011;63163;55.630;37.594;2023-03-01T04:14:29;3.6;;;0.8;;
74644;SDS011;63163;55.630;37.594;2023-03-01T04:15:30;3.1;;;0.5;;
74644;SDS011;63163;55.630;37.594;2023-03-01T04:16:30;1.4;;;0.6;;
74644;SDS011;63163;55.630;37.594;2023-03-01T04:17:31;1.7;;;0.5;;
74644;SDS011;63163;55.630;37.594;2023-03-01T04:18:31;2.8;;;0.7;;
74644;SDS011;63163;55.630;37.594;2023-03-01T04:19:32;1.7;;;0.4;;
74644;SDS011;63163;55.630;37.594;2023-03-01T04:20:36;0.8;;;0.6;;
74644;SDS011;63163;55.630;37.594;2023-03-01T04:21:36;1.8;;;0.7;;
74644;SDS011;63163;55.630;37.594;2023-03-01T04:22:37;1.8;;;0.9;;
74644;SDS011;63163;55.630;37.594;2023-03-01T04:23:38;2.5;;;1.0;;
74644;SDS011;63163;55.630;37.594;2023-03-01T04:24:39;2.5;;;0.5;;
74644;SDS011;63163;55.630;37.594;2023-03-01T04:25:40;1.1;;;0.5;;
74644;SDS011;63163;55.630;37.594;2023-03-01T04:26:41;2.6;;;0.9;;
74644;SDS011;63163;55.630;37.594;2023-03-01T04:27:41;1.5;;;0.5;;
74644;SDS011;63163;55.630;37.594;2023-03-01T04:28:42;2.2;;;0.7;;
74644;SDS011;63163;55.630;37.594;2023-03-01T04:29:45;1.5;;;0.4;;
74644;SDS011;63163;55.630;37.594;2023-03-01T04:30:45;1.5;;;0.4;;
74644;SDS011;63163;55.630;37.594;2023-03-01T04:31:47;1.2;;;0.5;;
74644;SDS011;63163;55.630;37.594;2023-03-01T04:32:49;2.5;;;1.0;;
74644;SDS011;63163;55.630;37.594;2023-03-01T04:33:51;0.4;;;0.4;;
74644;SDS011;63163;55.630;37.594;2023-03-01T04:34:52;2.1;;;0.5;;
74644;SDS011;63163;55.630;37.594;2023-03-01T04:35:53;1.0;;;0.4;;
74644;SDS011;63163;55.630;37.594;2023-03-01T04:36:53;2.1;;;0.5;;
74644;SDS011;63163;55.630;37.594;2023-03-01T04:37:54;2.7;;;0.6;;
74644;SDS011;63163;55.630;37.594;2023-03-01T04:38:55;4.9;;;0.8;;
74644;SDS011;63163;55.630;37.594;2023-03-01T04:39:56;2.0;;;0.7;;
74644;SDS011;63163;55.630;37.594;2023-03-01T04:40:56;1.5;;;0.5;;
74644;SDS011;63163;55.630;37.594;2023-03-01T04:41:57;1.8;;;0.6;;
74644;SDS011;63163;55.630;37.594;2023-03-01T04:42:57;2.9;;;0.9;;
74644;SDS011;63163;55.630;37.594;2023-03-01T04:43:58;1.5;;;0.6;;
74644;SDS011;63163;55.630;37.594;2023-03-01T04:45:00;3.1;;;0.7;;
74644;SDS011;63163;55.630;37.594;2023-03-01T04:46:01;3.2;;;0.8;;
74644;SDS011;63163;55.630;37.594;2023-03-01T04:47:03;1.5;;;0.6;;
74644;SDS011;63163;55.630;37.594;2023-03-01T04:48:03;2.8;;;0.7;;
74644;SDS011;63163;55.630;37.594;2023-03-01T04:49:04;2.1;;;1.2;;
74644;SDS011;63163;55.630;37.594;2023-03-01T04:50:05;1.7;;;0.7;;
74644;SDS011;63163;55.630;37.594;2023-03-01T04:51:06;3.6;;;0.6;;
74644;SDS011;63163;55.630;37.594;2023-03-01T04:52:07;2.6;;;0.7;;
74644;SDS011;63163;55.630;37.594;2023-03-01T04:53:09;3.9;;;0.7;;
74644;SDS011;63163;55.630;37.594;2023-03-01T04:54:10;2.0;;;1.0;;
74644;SDS011;63163;55.630;37.594;2023-03-01T04:55:10;3.5;;;0.7;;
74644;SDS011;63163;55.630;37.594;2023-03-01T04:56:11;3.0;;;0.8;;
74644;SDS011;63163;55.630;37.594;2023-03-01T04:57:13;1.6;;;0.7;;
74644;SDS011;63163;55.630;37.594;2023-03-01T04:58:14;1.1;;;0.6;;
74644;SDS011;63163;55.630;37.594;2023-03-01T04:59:15;3.6;;;0.8;;
74644;SDS011;63163;55.630;37.594;2023-03-01T05:00:16;1.7;;;0.7;;
74644;SDS011;63163;55.630;37.594;2023-03-01T05:01:23;1.8;;;1.1;;
74644;SDS011;63163;55.630;37.594;2023-03-01T05:02:24;2.2;;;0.8;;
74644;SDS011;63163;55.630;37.594;2023-03-01T05:03:25;4.4;;;1.0;;
74644;SDS011;63163;55.630;37.594;2023-03-01T05:04:25;3.7;;;0.8;;
74644;SDS011;63163;55.630;37.594;2023-03-01T05:05:27;2.1;;;0.6;;
74644;SDS011;63163;55.630;37.594;2023-03-01T05:06:28;1.1;;;0.5;;
74644;SDS011;63163;55.630;37.594;2023-03-01T05:07:29;2.2;;;0.5;;
74644;SDS011;63163;55.630;37.594;2023-03-01T05:08:30;1.9;;;0.5;;
74644;SDS011;63163;55.630;37.594;2023-03-01T05:09:34;1.0;;;0.6;;
74644;SDS011;63163;55.630;37.594;2023-03-01T05:10:35;1.3;;;0.5;;
74644;SDS011;63163;55.630;37.594;2023-03-01T05:11:36;1.9;;;0.7;;
74644;SDS011;63163;55.630;37.594;2023-03-01T05:12:37;3.1;;;0.8;;
74644;SDS011;63163;55.630;37.594;2023-03-01T05:13:38;0.8;;;0.5;;
74644;SDS011;63163;55.630;37.594;2023-03-01T05:14:39;2.9;;;0.5;;
74644;SDS011;63163;55.630;37.594;2023-03-01T05:15:40;2.3;;;0.7;;
74644;SDS011;63163;55.630;37.594;2023-03-01T05:16:40;1.1;;;0.4;;
74644;SDS011;63163;55.630;37.594;2023-03-01T05:17:41;0.8;;;0.6;;
74644;SDS011;63163;55.630;37.594;2023-03-01T05:18:42;0.9;;;0.5;;
74644;SDS011;63163;55.630;37.594;2023-03-01T05:19:43;1.9;;;0.4;;
74644;SDS011;63163;55.630;37.594;2023-03-01T05:20:44;1.7;;;0.7;;
74644;SDS011;63163;55.630;37.594;2023-03-01T05:21:45;1.6;;;0.6;;
74644;SDS011;63163;55.630;37.594;2023-03-01T05:23:16;1.1;;;0.7;;
74644;SDS011;63163;55.630;37.594;2023-03-01T05:24:17;1.2;;;0.6;;
74644;SDS011;63163;55.630;37.594;2023-03-01T05:25:17;3.2;;;0.8;;
74644;SDS011;63163;55.630;37.594;2023-03-01T05:26:19;0.9;;;0.6;;
74644;SDS011;63163;55.630;37.594;2023-03-01T05:27:19;2.1;;;0.8;;
74644;SDS011;63163;55.630;37.594;2023-03-01T05:28:22;3.3;;;0.8;;
74644;SDS011;63163;55.630;37.594;2023-03-01T05:29:23;3.1;;;0.8;;
74644;SDS011;63163;55.630;37.594;2023-03-01T05:30:27;3.1;;;0.8;;
74644;SDS011;63163;55.630;37.594;2023-03-01T05:31:27;3.2;;;1.0;;
74644;SDS011;63163;55.630;37.594;2023-03-01T05:32:28;2.9;;;1.2;;
74644;SDS011;63163;55.630;37.594;2023-03-01T05:33:32;4.1;;;1.1;;
74644;SDS011;63163;55.630;37.594;2023-03-01T05:34:33;1.8;;;1.1;;
74644;SDS011;63163;55.630;37.594;2023-03-01T05:35:34;3.0;;;1.3;;
74644;SDS011;63163;55.630;37.594;2023-03-01T05:36:35;2.2;;;1.3;;
74644;SDS011;63163;55.630;37.594;2023-03-01T05:37:35;3.9;;;1.4;;
74644;SDS011;63163;55.630;37.594;2023-03-01T05:38:36;3.8;;;1.3;;
74644;SDS011;63163;55.630;37.594;2023-03-01T05:39:37;3.1;;;1.5;;
74644;SDS011;63163;55.630;37.594;2023-03-01T05:40:37;3.5;;;1.7;;
74644;SDS011;63163;55.630;37.594;2023-03-01T05:41:38;2.8;;;1.4;;
74644;SDS011;63163;55.630;37.594;2023-03-01T05:42:42;3.4;;;1.3;;
74644;SDS011;63163;55.630;37.594;2023-03-01T05:43:42;4.7;;;1.7;;
74644;SDS011;63163;55.630;37.594;2023-03-01T05:44:45;3.1;;;1.4;;
74644;SDS011;63163;55.630;37.594;2023-03-01T05:45:45;4.7;;;1.5;;
74644;SDS011;63163;55.630;37.594;2023-03-01T05:46:46;4.0;;;1.7;;
74644;SDS011;63163;55.630;37.594;2023-03-01T05:47:47;3.5;;;1.2;;
74644;SDS011;63163;55.630;37.594;2023-03-01T05:48:48;4.3;;;1.3;;
74644;SDS011;63163;55.630;37.594;2023-03-01T05:49:48;3.7;;;1.5;;
74644;SDS011;63163;55.630;37.594;2023-03-01T05:50:50;4.0;;;1.7;;
74644;SDS011;63163;55.630;37.594;2023-03-01T05:51:52;4.1;;;1.7;;
74644;SDS011;63163;55.630;37.594;2023-03-01T05:52:56;2.1;;;1.0;;
74644;SDS011;63163;55.630;37.594;2023-03-01T05:53:57;3.9;;;1.4;;
74644;SDS011;63163;55.630;37.594;2023-03-01T05:54:57;2.5;;;1.0;;
74644;SDS011;63163;55.630;37.594;2023-03-01T05:55:58;2.1;;;1.4;;
74644;SDS011;63163;55.630;37.594;2023-03-01T05:56:59;2.3;;;1.4;;
74644;SDS011;63163;55.630;37.594;2023-03-01T05:57:59;3.3;;;1.4;;
74644;SDS011;63163;55.630;37.594;2023-03-01T05:59:00;3.8;;;1.4;;
74644;SDS011;63163;55.630;37.594;2023-03-01T06:00:01;5.1;;;1.6;;
74644;SDS011;63163;55.630;37.594;2023-03-01T06:01:01;5.3;;;1.2;;
74644;SDS011;63163;55.630;37.594;2023-03-01T06:02:02;2.5;;;1.1;;
74644;SDS011;63163;55.630;37.594;2023-03-01T06:03:03;1.8;;;1.0;;
74644;SDS011;63163;55.630;37.594;2023-03-01T06:04:04;6.9;;;1.9;;
74644;SDS011;63163;55.630;37.594;2023-03-01T06:05:05;6.9;;;1.3;;
74644;SDS011;63163;55.630;37.594;2023-03-01T06:06:06;3.0;;;1.2;;
74644;SDS011;63163;55.630;37.594;2023-03-01T06:07:07;3.5;;;1.1;;
74644;SDS011;63163;55.630;37.594;2023-03-01T06:08:09;3.3;;;1.4;;
74644;SDS011;63163;55.630;37.594;2023-03-01T06:09:10;4.2;;;1.1;;
74644;SDS011;63163;55.630;37.594;2023-03-01T06:10:11;3.4;;;1.0;;
74644;SDS011;63163;55.630;37.594;2023-03-01T06:11:12;3.3;;;1.3;;
74644;SDS011;63163;55.630;37.594;2023-03-01T06:12:12;2.1;;;0.9;;
74644;SDS011;63163;55.630;37.594;2023-03-01T06:13:13;2.5;;;1.0;;
74644;SDS011;63163;55.630;37.594;2023-03-01T06:14:13;3.5;;;1.3;;
74644;SDS011;63163;55.630;37.594;2023-03-01T06:15:15;3.4;;;1.3;;
74644;SDS011;63163;55.630;37.594;2023-03-01T06:16:16;3.3;;;1.0;;
74644;SDS011;63163;55.630;37.594;2023-03-01T06:17:17;4.0;;;1.0;;
74644;SDS011;63163;55.630;37.594;2023-03-01T06:18:17;2.8;;;1.0;;